createdAt,value
2018-12-18T00:02:01.421Z,7.20
2018-12-18T00:04:29.659Z,8.47
2018-12-18T00:06:57.734Z,6.80
2018-12-18T00:09:25.906Z,7.37
2018-12-18T00:11:59.323Z,7.83
2018-12-18T00:14:24.007Z,6.40
2018-12-18T00:16:52.043Z,6.90
2018-12-18T00:19:20.130Z,7.27
2018-12-18T00:21:48.540Z,6.33
2018-12-18T00:24:16.566Z,6.57
2018-12-18T00:26:44.599Z,6.57
2018-12-18T00:29:12.639Z,6.27
2018-12-18T00:31:40.706Z,6.50
2018-12-18T00:34:08.735Z,6.60
2018-12-18T00:36:36.792Z,6.90
2018-12-18T00:39:06.821Z,6.47
2018-12-18T00:41:34.942Z,6.47
2018-12-18T00:44:03.247Z,7.10
2018-12-18T00:46:31.389Z,6.80
2018-12-18T00:48:59.650Z,6.77
2018-12-18T00:51:27.958Z,6.63
2018-12-18T00:53:56.026Z,6.70
2018-12-18T00:56:24.087Z,7.43
2018-12-18T00:58:52.534Z,6.73
2018-12-18T01:01:20.597Z,6.33
2018-12-18T01:03:52.740Z,6.77
2018-12-18T01:06:18.746Z,6.57
2018-12-18T01:08:46.924Z,7.23
2018-12-18T01:11:15.977Z,6.80
2018-12-18T01:13:44.087Z,6.53
2018-12-18T01:16:12.182Z,7.10
2018-12-18T01:18:40.352Z,8.20
2018-12-18T01:21:08.439Z,6.83
2018-12-18T01:23:36.491Z,8.10
2018-12-18T01:26:05.101Z,6.20
2018-12-18T01:28:33.662Z,7.05
2018-12-18T01:31:02.130Z,7.70
2018-12-18T01:33:30.208Z,7.90
2018-12-18T01:35:58.312Z,8.17
2018-12-18T01:38:26.459Z,9.13
2018-12-18T01:40:55.113Z,8.60
2018-12-18T01:43:23.228Z,8.80
2018-12-18T01:45:51.254Z,7.30
2018-12-18T01:48:19.673Z,7.60
2018-12-18T01:50:47.713Z,8.00
2018-12-18T01:53:15.743Z,7.33
2018-12-18T01:55:43.794Z,8.63
2018-12-18T01:58:12.243Z,7.67
2018-12-18T02:00:40.451Z,7.50
2018-12-18T02:03:08.819Z,7.13
2018-12-18T02:05:37.386Z,7.70
2018-12-18T02:08:06.354Z,6.80
2018-12-18T02:10:36.148Z,7.33
2018-12-18T02:13:05.112Z,7.80
2018-12-18T02:15:33.165Z,6.30
2018-12-18T02:18:01.219Z,6.67
2018-12-18T02:20:30.201Z,7.63
2018-12-18T02:22:58.638Z,6.70
2018-12-18T02:25:27.095Z,7.60
2018-12-18T02:27:55.666Z,5.83
2018-12-18T02:30:24.425Z,6.53
2018-12-18T02:32:52.465Z,6.67
2018-12-18T02:35:20.856Z,6.67
2018-12-18T02:37:48.947Z,7.30
2018-12-18T02:40:17.597Z,7.28
2018-12-18T02:42:46.260Z,7.65
2018-12-18T02:45:15.398Z,7.70
2018-12-18T02:47:44.538Z,6.78
2018-12-18T02:50:12.856Z,7.30
2018-12-18T02:52:41.904Z,6.35
2018-12-18T02:55:10.207Z,6.90
2018-12-18T02:57:38.624Z,6.87
2018-12-18T03:00:07.127Z,7.10
2018-12-18T03:02:35.447Z,6.67
2018-12-18T03:05:04.637Z,6.53
2018-12-18T03:07:33.089Z,5.97
2018-12-18T03:10:02.179Z,6.07
2018-12-18T03:12:30.553Z,6.62
2018-12-18T03:14:59.119Z,6.17
2018-12-18T03:17:27.806Z,6.85
2018-12-18T03:19:56.267Z,7.17
2018-12-18T03:22:24.576Z,6.33
2018-12-18T03:24:53.464Z,7.40
2018-12-18T03:27:21.838Z,6.35
2018-12-18T03:29:50.223Z,6.58
2018-12-18T03:32:19.120Z,7.10
2018-12-18T03:34:47.511Z,6.80
2018-12-18T03:37:16.086Z,6.85
2018-12-18T03:39:44.464Z,6.37
2018-12-18T03:42:13.174Z,6.97
2018-12-18T03:44:42.354Z,7.67
2018-12-18T03:47:10.666Z,7.20
2018-12-18T03:49:39.608Z,7.65
2018-12-18T03:52:07.908Z,6.55
2018-12-18T03:54:36.325Z,6.83
2018-12-18T03:57:05.461Z,7.05
2018-12-18T03:59:33.859Z,6.90
2018-12-18T04:02:02.162Z,6.90
2018-12-18T04:04:35.510Z,6.42
2018-12-18T04:07:01.343Z,5.85
2018-12-18T04:09:29.653Z,6.45
2018-12-18T04:12:09.441Z,6.62
2018-12-18T04:14:37.858Z,6.55
2018-12-18T04:17:06.460Z,6.53
2018-12-18T04:19:35.140Z,7.58
2018-12-18T04:22:03.455Z,7.33
2018-12-18T04:24:32.211Z,6.83
2018-12-18T04:27:00.787Z,6.58
2018-12-18T04:29:29.378Z,6.17
2018-12-18T04:31:58.311Z,6.87
2018-12-18T04:34:26.757Z,5.85
2018-12-18T04:36:55.090Z,6.25
2018-12-18T04:39:23.409Z,6.45
2018-12-18T04:41:51.783Z,6.33
2018-12-18T04:44:20.381Z,6.17
2018-12-18T04:46:48.958Z,6.80
2018-12-18T04:49:18.212Z,6.20
2018-12-18T04:51:46.547Z,6.50
2018-12-18T04:54:15.618Z,6.72
2018-12-18T04:56:44.830Z,6.60
2018-12-18T04:59:13.774Z,6.12
2018-12-18T05:01:42.079Z,6.22
2018-12-18T05:04:11.206Z,6.55
2018-12-18T05:06:39.689Z,6.37
2018-12-18T05:09:08.288Z,6.72
2018-12-18T05:11:36.654Z,7.10
2018-12-18T05:14:04.962Z,7.45
2018-12-18T05:16:33.286Z,7.37
2018-12-18T05:19:02.020Z,7.15
2018-12-18T05:21:31.088Z,7.47
2018-12-18T05:23:59.827Z,9.20
2018-12-18T05:26:28.397Z,7.22
2018-12-18T05:28:56.750Z,8.70
2018-12-18T05:31:25.839Z,8.35
2018-12-18T05:33:54.885Z,7.83
2018-12-18T05:36:23.313Z,8.23
2018-12-18T05:38:51.731Z,7.47
2018-12-18T05:41:20.097Z,7.85
2018-12-18T05:43:49.070Z,7.30
2018-12-18T05:46:17.393Z,8.05
2018-12-18T05:48:45.715Z,8.20
2018-12-18T05:51:14.039Z,7.83
2018-12-18T05:53:42.391Z,6.30
2018-12-18T05:56:10.709Z,7.35
2018-12-18T05:58:39.048Z,7.90
2018-12-18T06:01:07.912Z,7.40
2018-12-18T06:03:36.320Z,8.35
2018-12-18T06:06:05.249Z,8.63
2018-12-18T06:08:33.746Z,8.40
2018-12-18T06:11:02.043Z,8.45
2018-12-18T06:13:30.450Z,9.08
2018-12-18T06:15:58.775Z,8.85
2018-12-18T06:18:27.112Z,8.20
2018-12-18T06:20:55.878Z,8.48
2018-12-18T06:23:24.282Z,8.63
2018-12-18T06:25:52.683Z,8.25
2018-12-18T06:28:21.006Z,7.65
2018-12-18T06:30:49.319Z,6.50
2018-12-18T06:33:18.461Z,7.00
2018-12-18T06:35:46.803Z,6.58
2018-12-18T06:38:15.857Z,6.60
2018-12-18T06:40:44.191Z,6.53
2018-12-18T06:43:12.511Z,7.58
2018-12-18T06:45:40.851Z,8.03
2018-12-18T06:48:09.186Z,8.03
2018-12-18T06:50:37.594Z,6.75
2018-12-18T06:53:06.840Z,7.67
2018-12-18T06:55:35.994Z,8.20
2018-12-18T06:58:05.035Z,8.20
2018-12-18T07:00:33.470Z,8.90
2018-12-18T07:03:01.804Z,8.40
2018-12-18T07:05:30.124Z,9.05
2018-12-18T07:07:58.518Z,7.75
2018-12-18T07:10:26.894Z,7.83
2018-12-18T07:12:55.194Z,7.72
2018-12-18T07:15:24.379Z,6.70
2018-12-18T07:17:53.508Z,6.50
2018-12-18T07:20:21.839Z,6.40
2018-12-18T07:22:50.172Z,6.78
2018-12-18T07:25:19.011Z,7.60
2018-12-18T07:27:47.388Z,7.30
2018-12-18T07:30:16.039Z,7.80
2018-12-18T07:32:44.363Z,7.28
2018-12-18T07:35:13.911Z,7.92
2018-12-18T07:37:42.358Z,7.40
2018-12-18T07:40:11.990Z,7.42
2018-12-18T07:42:40.323Z,8.00
2018-12-18T07:45:09.383Z,7.55
2018-12-18T07:47:37.815Z,7.70
2018-12-18T07:50:06.191Z,7.45
2018-12-18T07:52:34.981Z,7.33
2018-12-18T07:55:03.362Z,8.30
2018-12-18T07:57:31.743Z,7.50
2018-12-18T08:00:01.398Z,8.15
2018-12-18T08:02:29.719Z,9.15
2018-12-18T08:04:58.035Z,8.30
2018-12-18T08:07:26.347Z,8.78
2018-12-18T08:09:54.679Z,9.15
2018-12-18T08:12:24.792Z,9.93
2018-12-18T08:14:53.311Z,10.15
2018-12-18T08:17:21.637Z,9.35
2018-12-18T08:19:49.949Z,9.13
2018-12-18T08:22:18.294Z,9.85
2018-12-18T08:24:46.646Z,10.30
2018-12-18T08:27:14.966Z,13.62
2018-12-18T08:29:43.313Z,12.53
2018-12-18T08:32:11.634Z,11.85
2018-12-18T08:34:39.978Z,12.45
2018-12-18T08:37:08.297Z,13.15
2018-12-18T08:39:36.639Z,11.93
2018-12-18T08:42:04.970Z,13.65
2018-12-18T08:44:33.322Z,14.78
2018-12-18T08:47:01.703Z,14.18
2018-12-18T08:49:30.480Z,14.63
2018-12-18T08:51:58.807Z,13.30
2018-12-18T08:54:27.262Z,13.28
2018-12-18T08:56:55.607Z,13.03
2018-12-18T08:59:23.985Z,12.68
2018-12-18T09:01:52.297Z,12.88
2018-12-18T09:04:20.423Z,12.33
2018-12-18T09:06:48.747Z,11.30
2018-12-18T09:09:16.782Z,11.57
2018-12-18T09:11:45.132Z,11.48
2018-12-18T09:14:13.450Z,11.28
2018-12-18T09:16:47.031Z,10.70
2018-12-18T09:19:15.355Z,11.28
2018-12-18T09:21:43.721Z,11.97
2018-12-18T09:24:11.836Z,11.00
2018-12-18T09:26:39.890Z,10.70
2018-12-18T09:29:08.471Z,11.60
2018-12-18T09:31:37.048Z,10.10
2018-12-18T09:34:05.114Z,9.70
2018-12-18T09:36:33.173Z,9.90
2018-12-18T09:39:06.727Z,9.53
2018-12-18T09:41:39.198Z,10.60
2018-12-18T09:44:08.098Z,9.90
2018-12-18T09:46:36.160Z,9.23
2018-12-18T09:49:04.256Z,8.80
2018-12-18T09:51:32.307Z,9.23
2018-12-18T09:54:00.351Z,9.10
2018-12-18T09:56:28.418Z,9.40
2018-12-18T09:58:56.483Z,9.40
2018-12-18T10:01:24.516Z,9.10
2018-12-18T10:03:52.555Z,8.23
2018-12-18T10:06:20.605Z,7.90
2018-12-18T10:08:48.662Z,7.80
2018-12-18T10:11:16.748Z,7.67
2018-12-18T10:13:44.875Z,8.37
2018-12-18T10:16:12.902Z,8.80
2018-12-18T10:18:41.283Z,9.00
2018-12-18T10:21:09.325Z,9.43
2018-12-18T10:23:37.392Z,10.00
2018-12-18T10:26:05.439Z,11.23
2018-12-18T10:28:33.499Z,10.80
2018-12-18T10:31:01.591Z,11.60
2018-12-18T10:33:29.642Z,10.97
2018-12-18T10:36:02.941Z,10.70
2018-12-18T10:38:27.720Z,10.60
2018-12-18T10:40:55.780Z,11.53
2018-12-18T10:43:23.820Z,9.83
2018-12-18T10:45:51.867Z,10.40
2018-12-18T10:48:19.920Z,9.93
2018-12-18T10:50:47.993Z,11.10
2018-12-18T10:53:16.027Z,10.73
2018-12-18T10:55:44.082Z,11.70
2018-12-18T10:58:12.138Z,12.47
2018-12-18T11:00:45.617Z,11.70
2018-12-18T11:03:13.671Z,12.23
2018-12-18T11:05:41.741Z,11.27
2018-12-18T11:08:09.795Z,10.10
2018-12-18T11:10:37.852Z,9.13
2018-12-18T11:13:11.437Z,10.53
2018-12-18T11:15:39.498Z,10.50
2018-12-18T11:18:07.547Z,9.23
2018-12-18T11:20:35.610Z,9.53
2018-12-18T11:23:03.663Z,9.97
2018-12-18T11:25:31.723Z,8.70
2018-12-18T11:27:59.784Z,9.20
2018-12-18T11:30:27.826Z,9.23
2018-12-18T11:32:55.951Z,7.90
2018-12-18T11:35:24.007Z,7.90
2018-12-18T11:37:52.352Z,8.20
2018-12-18T11:40:20.394Z,7.50
2018-12-18T11:42:48.474Z,8.50
2018-12-18T11:45:16.514Z,7.80
2018-12-18T11:47:44.594Z,7.80
2018-12-18T11:50:12.898Z,8.67
2018-12-18T11:52:40.954Z,7.97
2018-12-18T11:55:09.024Z,8.60
2018-12-18T11:57:37.082Z,8.93
2018-12-18T12:00:06.366Z,8.67
2018-12-18T12:02:34.426Z,8.33
2018-12-18T12:05:02.479Z,9.47
2018-12-18T12:07:30.570Z,9.67
2018-12-18T12:09:58.591Z,9.30
2018-12-18T12:12:26.675Z,8.83
2018-12-18T12:14:54.880Z,9.50
2018-12-18T12:17:23.208Z,9.03
2018-12-18T12:19:51.263Z,10.67
2018-12-18T12:22:19.339Z,11.10
2018-12-18T12:24:47.395Z,9.33
2018-12-18T12:27:21.123Z,9.67
2018-12-18T12:29:49.211Z,9.10
2018-12-18T12:32:17.244Z,8.50
2018-12-18T12:34:45.810Z,8.87
2018-12-18T12:37:13.842Z,9.27
2018-12-18T12:39:41.902Z,10.00
2018-12-18T12:42:09.939Z,10.00
2018-12-18T12:44:38.019Z,9.17
2018-12-18T12:47:06.056Z,9.60
2018-12-18T12:49:39.737Z,8.77
2018-12-18T12:52:07.768Z,9.50
2018-12-18T12:54:35.823Z,8.60
2018-12-18T12:57:04.106Z,8.60
2018-12-18T12:59:32.231Z,8.83
2018-12-18T13:02:00.768Z,9.57
2018-12-18T13:04:28.855Z,9.70
2018-12-18T13:06:56.912Z,10.53
2018-12-18T13:09:24.940Z,9.23
2018-12-18T13:11:52.987Z,8.80
2018-12-18T13:14:21.047Z,8.20
2018-12-18T13:16:49.132Z,9.10
2018-12-18T13:19:17.146Z,9.30
2018-12-18T13:21:45.232Z,10.07
2018-12-18T13:24:13.268Z,9.87
2018-12-18T13:26:41.323Z,8.73
2018-12-18T13:29:09.349Z,9.00
2018-12-18T13:31:37.419Z,8.77
2018-12-18T13:34:05.448Z,8.60
2018-12-18T13:36:33.622Z,8.67
2018-12-18T13:39:01.655Z,9.90
2018-12-18T13:41:29.714Z,11.30
2018-12-18T13:43:58.900Z,8.40
2018-12-18T13:46:26.932Z,8.87
2018-12-18T13:48:54.978Z,9.20
2018-12-18T13:51:23.031Z,8.80
2018-12-18T13:53:51.072Z,8.30
2018-12-18T13:56:19.143Z,8.23
2018-12-18T13:58:47.827Z,7.93
2018-12-18T14:01:15.994Z,7.50
2018-12-18T14:03:44.047Z,7.10
2018-12-18T14:06:12.083Z,7.60
2018-12-18T14:08:40.128Z,7.37
2018-12-18T14:11:08.172Z,6.90
2018-12-18T14:13:36.215Z,7.60
2018-12-18T14:16:04.256Z,7.20
2018-12-18T14:18:32.343Z,7.20
2018-12-18T14:21:00.388Z,7.13
2018-12-18T14:23:28.443Z,7.03
2018-12-18T14:25:56.489Z,6.80
2018-12-18T14:28:24.546Z,7.10
2018-12-18T14:30:52.570Z,6.47
2018-12-18T14:33:20.636Z,6.37
2018-12-18T14:35:48.673Z,5.57
2018-12-18T14:38:16.720Z,5.37
2018-12-18T14:40:44.794Z,5.27
2018-12-18T14:43:12.841Z,6.40
2018-12-18T14:45:40.873Z,5.90
2018-12-18T14:48:08.936Z,4.93
2018-12-18T14:50:37.002Z,4.80
2018-12-18T14:53:05.027Z,5.60
2018-12-18T14:55:33.111Z,5.20
2018-12-18T14:58:01.161Z,6.20
2018-12-18T15:00:29.234Z,4.83
2018-12-18T15:02:57.279Z,4.70
2018-12-18T15:05:25.344Z,4.50
2018-12-18T15:07:53.379Z,4.47
2018-12-18T15:10:21.438Z,4.53
2018-12-18T15:12:49.548Z,4.50
2018-12-18T15:15:17.609Z,4.53
2018-12-18T15:17:45.894Z,4.60
2018-12-18T15:20:13.936Z,4.57
2018-12-18T15:22:41.971Z,4.50
2018-12-18T15:25:10.015Z,4.43
2018-12-18T15:27:38.059Z,4.70
2018-12-18T15:30:06.583Z,5.00
2018-12-18T15:32:34.674Z,4.47
2018-12-18T15:35:02.729Z,4.67
2018-12-18T15:37:30.784Z,4.67
2018-12-18T15:39:58.821Z,4.43
2018-12-18T15:42:26.883Z,4.80
2018-12-18T15:44:54.939Z,4.47
2018-12-18T15:47:22.980Z,4.37
2018-12-18T15:49:51.002Z,4.60
2018-12-18T15:52:19.099Z,4.73
2018-12-18T15:54:48.624Z,5.27
2018-12-18T15:57:16.669Z,6.00
2018-12-18T15:59:44.705Z,5.67
2018-12-18T16:02:12.761Z,6.47
2018-12-18T16:04:40.795Z,6.77
2018-12-18T16:07:08.927Z,6.27
2018-12-18T16:09:36.938Z,5.90
2018-12-18T16:12:04.986Z,6.33
2018-12-18T16:14:33.037Z,7.00
2018-12-18T16:17:01.101Z,6.83
2018-12-18T16:19:29.306Z,7.23
2018-12-18T16:21:57.550Z,7.47
2018-12-18T16:24:25.600Z,6.93
2018-12-18T16:26:53.646Z,9.50
2018-12-18T16:29:21.695Z,7.60
2018-12-18T16:31:49.729Z,7.30
2018-12-18T16:34:17.800Z,6.87
2018-12-18T16:36:45.870Z,7.10
2018-12-18T16:39:13.905Z,6.83
2018-12-18T16:41:41.930Z,6.30
2018-12-18T16:44:09.987Z,6.60
2018-12-18T16:46:38.031Z,6.40
2018-12-18T16:49:06.083Z,5.80
2018-12-18T16:51:34.127Z,5.73
2018-12-18T16:54:02.181Z,4.93
2018-12-18T16:56:30.279Z,5.80
2018-12-18T16:58:58.618Z,6.10
2018-12-18T17:01:26.940Z,5.72
2018-12-18T17:03:55.260Z,5.72
2018-12-18T17:06:23.575Z,6.50
2018-12-18T17:08:51.915Z,11.97
2018-12-18T17:11:20.229Z,8.55
2018-12-18T17:13:48.291Z,6.13
2018-12-18T17:16:16.631Z,6.45
2018-12-18T17:18:44.713Z,5.77
2018-12-18T17:21:12.767Z,32.20
2018-12-18T17:23:40.863Z,25.20
2018-12-18T17:26:08.922Z,17.20
2018-12-18T17:28:37.238Z,18.90
2018-12-18T17:31:05.571Z,14.45
2018-12-18T17:33:33.656Z,10.87
2018-12-18T17:36:01.873Z,10.50
2018-12-18T17:38:29.914Z,10.60
2018-12-18T17:40:58.252Z,7.28
2018-12-18T17:43:26.734Z,8.10
2018-12-18T17:45:55.105Z,11.45
2018-12-18T17:48:23.554Z,14.50
2018-12-18T17:50:51.916Z,15.85
2018-12-18T17:53:20.253Z,14.15
2018-12-18T17:55:48.611Z,13.05
2018-12-18T17:58:16.960Z,11.40
2018-12-18T18:00:45.338Z,10.30
2018-12-18T18:03:13.663Z,7.20
2018-12-18T18:05:41.986Z,12.58
2018-12-18T18:08:10.048Z,9.50
2018-12-18T18:10:38.097Z,6.90
2018-12-18T18:13:06.450Z,8.60
2018-12-18T18:15:34.764Z,9.40
2018-12-18T18:18:03.274Z,7.70
2018-12-18T18:20:31.323Z,6.57
2018-12-18T18:22:59.643Z,6.70
2018-12-18T18:25:27.967Z,6.78
2018-12-18T18:27:56.316Z,6.20
2018-12-18T18:30:24.641Z,7.78
2018-12-18T18:32:52.984Z,8.25
2018-12-18T18:35:21.304Z,7.15
2018-12-18T18:37:49.897Z,7.80
2018-12-18T18:40:18.525Z,7.83
2018-12-18T18:42:46.850Z,7.80
2018-12-18T18:45:15.168Z,7.08
2018-12-18T18:47:43.588Z,8.30
2018-12-18T18:50:11.888Z,7.05
2018-12-18T18:52:40.260Z,7.17
2018-12-18T18:55:08.579Z,7.05
2018-12-18T18:57:36.877Z,6.25
2018-12-18T19:00:06.655Z,6.75
2018-12-18T19:02:34.972Z,7.62
2018-12-18T19:05:03.470Z,7.05
2018-12-18T19:07:31.784Z,8.30
2018-12-18T19:10:00.132Z,7.55
2018-12-18T19:12:28.462Z,7.40
2018-12-18T19:14:56.884Z,8.45
2018-12-18T19:17:25.212Z,10.45
2018-12-18T19:19:53.547Z,7.55
2018-12-18T19:22:21.872Z,8.43
2018-12-18T19:24:50.226Z,8.60
2018-12-18T19:27:18.781Z,8.60
2018-12-18T19:29:47.129Z,10.88
2018-12-18T19:32:15.462Z,9.45
2018-12-18T19:34:43.837Z,8.05
2018-12-18T19:37:12.154Z,8.30
2018-12-18T19:39:40.821Z,7.92
2018-12-18T19:42:09.321Z,8.00
2018-12-18T19:44:37.933Z,9.05
2018-12-18T19:47:06.328Z,8.93
2018-12-18T19:49:34.650Z,8.60
2018-12-18T19:52:02.981Z,8.90
2018-12-18T19:54:31.345Z,8.48
2018-12-18T19:56:59.723Z,10.23
2018-12-18T19:59:28.097Z,10.38
2018-12-18T20:01:56.459Z,10.05
2018-12-18T20:04:24.951Z,12.35
2018-12-18T20:06:53.338Z,11.10
2018-12-18T20:09:21.668Z,10.15
2018-12-18T20:11:50.070Z,10.98
2018-12-18T20:14:18.393Z,9.40
2018-12-18T20:16:46.745Z,8.95
2018-12-18T20:19:15.052Z,8.88
2018-12-18T20:21:43.397Z,9.40
2018-12-18T20:24:13.271Z,10.40
2018-12-18T20:26:41.592Z,10.05
2018-12-18T20:29:09.961Z,9.95
2018-12-18T20:31:38.293Z,8.13
2018-12-18T20:34:06.648Z,7.55
2018-12-18T20:36:34.972Z,8.53
2018-12-18T20:39:03.477Z,8.20
2018-12-18T20:41:31.820Z,9.03
2018-12-18T20:44:00.158Z,9.85
2018-12-18T20:46:28.499Z,9.23
2018-12-18T20:48:56.832Z,9.00
2018-12-18T20:51:25.177Z,9.25
2018-12-18T20:53:53.542Z,9.40
2018-12-18T20:56:21.861Z,10.28
2018-12-18T20:58:50.279Z,11.08
2018-12-18T21:01:18.616Z,10.80
2018-12-18T21:03:46.989Z,11.50
2018-12-18T21:06:15.540Z,11.80
2018-12-18T21:08:43.897Z,10.35
2018-12-18T21:11:12.245Z,9.88
2018-12-18T21:13:40.593Z,10.93
2018-12-18T21:16:08.925Z,10.75
2018-12-18T21:18:37.280Z,10.72
2018-12-18T21:21:05.697Z,9.85
2018-12-18T21:23:34.034Z,10.65
2018-12-18T21:26:02.378Z,11.03
2018-12-18T21:28:30.714Z,11.93
2018-12-18T21:30:59.054Z,11.70
2018-12-18T21:33:27.400Z,11.60
2018-12-18T21:35:55.732Z,11.55
2018-12-18T21:38:30.046Z,14.10
2018-12-18T21:40:54.499Z,13.98
2018-12-18T21:43:22.992Z,11.18
2018-12-18T21:45:51.363Z,11.50
2018-12-18T21:48:19.726Z,11.48
2018-12-18T21:50:48.095Z,11.68
2018-12-18T21:53:16.684Z,11.00
2018-12-18T21:55:45.032Z,12.18
2018-12-18T21:58:13.384Z,11.10
2018-12-18T22:00:41.725Z,17.27
2018-12-18T22:03:10.112Z,14.43
2018-12-18T22:05:38.473Z,14.68
2018-12-18T22:08:06.816Z,14.47
2018-12-18T22:10:35.156Z,17.37
2018-12-18T22:13:03.503Z,18.52
2018-12-18T22:15:31.827Z,19.67
2018-12-18T22:18:00.188Z,25.37
2018-12-18T22:20:28.538Z,21.97
2018-12-18T22:22:56.885Z,15.93
2018-12-18T22:25:25.248Z,15.45
2018-12-18T22:27:53.896Z,14.53
2018-12-18T22:30:22.224Z,14.43
2018-12-18T22:32:50.595Z,12.33
2018-12-18T22:35:19.331Z,12.58
2018-12-18T22:37:47.669Z,12.80
2018-12-18T22:40:15.986Z,11.35
2018-12-18T22:42:44.325Z,11.57
2018-12-18T22:45:12.660Z,11.88
2018-12-18T22:47:41.001Z,11.43
2018-12-18T22:50:09.405Z,11.25
2018-12-18T22:52:37.770Z,11.65
2018-12-18T22:55:06.116Z,10.70
2018-12-18T22:57:34.427Z,10.53
2018-12-18T23:00:02.803Z,10.63
2018-12-18T23:02:31.130Z,9.83
2018-12-18T23:04:59.648Z,11.95
2018-12-18T23:07:28.239Z,10.80
2018-12-18T23:09:56.591Z,10.10
2018-12-18T23:12:24.908Z,9.75
2018-12-18T23:14:53.246Z,10.03
2018-12-18T23:17:21.604Z,9.90
2018-12-18T23:19:49.926Z,8.83
2018-12-18T23:22:18.282Z,10.00
2018-12-18T23:24:46.627Z,8.63
2018-12-18T23:27:14.948Z,10.60
2018-12-18T23:29:43.293Z,9.30
2018-12-18T23:32:11.663Z,10.08
2018-12-18T23:34:40.036Z,10.32
2018-12-18T23:37:08.399Z,10.60
2018-12-18T23:39:36.730Z,9.15
2018-12-18T23:42:05.364Z,10.40
2018-12-18T23:44:33.674Z,9.65
2018-12-18T23:47:02.011Z,9.90
2018-12-18T23:49:30.347Z,10.28
2018-12-18T23:51:58.715Z,9.93
2018-12-18T23:54:27.053Z,10.03
2018-12-18T23:56:55.486Z,10.50
2018-12-18T23:59:23.802Z,10.28
